Latest Weather Observations for Pallamana

IDS60901

Issued at 1:31 am CST Monday 12 April 2021 (issued every 10 minutes, with the page automatically refreshed every 10 minutes)

About weather observations | Map of Adelaide area stations | Latest observations for Adelaide area | Other Formats
Station Details ID: 024584 Name: PALLAMANA AERODROME Lat: -35.06 Lon: 139.23 Height: 45.0 m
Data from the previous 72 hours. | See also: Recent months at Pallamana
Date/Time
CST
Temp
°C
App
Temp
°C
Dew
Point
°C
Rel
Hum
%
Delta-T
°C
Wind Press
QNH
hPa
Press
MSL
hPa
Rain since
9am
mm
Dir  Spd
km/h
Gust
km/h
Spd
kts
Gust
kts
12/01:30am 8.4 6.1 5.7 83 1.2 S 7 9 4 5 1025.8 1025.8 0.0
12/01:00am 8.7 6.1 6.2 84 1.1 SW 9 9 5 5 1025.6 1025.6 0.0
12/12:30am 9.1 6.4 5.8 80 1.5 S 9 11 5 6 1025.6 1025.6 0.0
12/12:00am 8.6 6.0 5.9 83 1.2 SSW 9 11 5 6 1025.5 1025.5 0.0
 
Date/Time
CST
Temp
°C
App
Temp
°C
Dew
Point
°C
Rel
Hum
%
Delta-T
°C
Wind Press
QNH
hPa
Press
MSL
hPa
Rain since
9am
mm
Dir  Spd
km/h
Gust
km/h
Spd
kts
Gust
kts
11/11:30pm 7.7 5.2 4.7 81 1.3 S 7 11 4 6 1025.4 1025.4 0.0
11/11:00pm 8.7 6.0 5.8 82 1.3 SW 9 11 5 6 1025.7 1025.7 0.0
11/10:30pm 9.2 6.3 6.3 82 1.3 SW 11 11 6 6 1025.7 1025.7 0.0
11/10:00pm 9.3 6.2 5.5 77 1.7 SW 11 13 6 7 1026.0 1026.0 0.0
11/09:30pm 10.3 8.1 5.3 71 2.3 WSW 6 7 3 4 1025.7 1025.7 0.0
11/09:00pm 12.1 9.0 5.5 64 3.1 S 11 13 6 7 1025.3 1025.3 0.0
11/08:30pm 11.9 8.5 5.8 66 2.8 SSW 13 15 7 8 1025.4 1025.4 0.0
11/08:00pm 11.6 8.8 5.0 64 3.0 S 9 13 5 7 1025.1 1025.1 0.0
11/07:30pm 12.8 9.3 5.5 61 3.4 S 13 19 7 10 1025.0 1025.0 0.0
11/07:00pm 13.4 10.2 7.0 65 3.1 S 13 19 7 10 1024.9 1024.9 0.0
11/06:30pm 14.1 9.4 7.9 66 3.1 S 22 32 12 17 1024.6 1024.6 0.0
11/06:00pm 15.0 10.4 8.3 64 3.4 SSW 22 32 12 17 1024.2 1024.2 0.0
11/05:30pm 14.9 11.3 8.4 65 3.3 SSW 17 22 9 12 1024.1 1024.1 0.0
11/05:00pm 15.1 11.0 8.8 66 3.2 S 20 28 11 15 1024.1 1024.1 0.0
11/04:30pm 15.8 10.3 7.6 58 4.1 SSW 26 35 14 19 1023.9 1023.9 0.0
11/04:00pm 16.2 9.9 7.2 55 4.5 S 30 41 16 22 1023.7 1023.7 0.0
11/03:30pm 17.4 10.0 4.0 41 6.3 SSW 32 41 17 22 1023.6 1023.6 0.0
11/03:00pm 17.8 10.9 4.4 41 6.3 SSW 30 39 16 21 1023.8 1023.8 0.0
11/02:38pm 17.7 11.3 5.0 43 6.1 S 28 46 15 25 1023.6 1023.6 0.0
11/02:30pm 17.8 11.0 5.1 43 6.1 SSW 30 41 16 22 1023.5 1023.5 0.0
11/02:00pm 17.3 10.8 6.5 49 5.3 S 30 39 16 21 1023.4 1023.4 0.0
11/01:30pm 17.1 11.6 7.5 53 4.8 SSW 26 35 14 19 1023.3 1023.3 0.0
11/01:00pm 16.7 10.3 6.8 52 4.9 S 30 39 16 21 1023.5 1023.5 0.0
11/12:30pm 17.1 10.8 7.5 53 4.8 SSW 30 43 16 23 1023.7 1023.7 0.0
11/12:00pm 16.4 9.6 6.8 53 4.7 SSW 32 44 17 24 1024.0 1024.0 0.0
11/11:30am 17.1 9.9 5.7 47 5.5 SSE 33 43 18 23 1023.9 1023.9 0.0
11/11:00am 16.6 10.5 6.7 52 4.9 SSW 28 41 15 22 1024.0 1024.0 0.0
11/10:30am 14.1 8.8 9.9 76 2.2 S 28 39 15 21 1024.3 1024.3 0.0
11/10:00am 16.6 9.9 7.3 54 4.6 SSW 32 43 17 23 1024.0 1024.0 0.0
11/09:30am 16.0 9.4 7.7 58 4.1 SSW 32 43 17 23 1023.8 1023.8 0.0
11/09:00am 14.5 8.1 8.5 67 3.0 S 32 43 17 23 1023.9 1023.9 0.0
11/08:30am 15.5 9.1 5.4 51 4.8 SSW 28 37 15 20 1023.3 1023.3 0.0
11/08:00am 15.1 9.2 5.9 54 4.4 S 26 35 14 19 1022.9 1022.8 0.0
11/07:30am 14.4 9.9 7.0 61 3.6 SSW 20 28 11 15 1022.5 1022.4 0.0
11/07:00am 13.4 9.9 8.7 73 2.4 SSW 17 26 9 14 1022.3 1022.2 0.0
11/06:30am 13.1 8.5 9.5 79 1.8 SSW 24 35 13 19 1021.8 1021.7 0.0
11/06:00am 13.7 9.6 7.9 68 2.9 WSW 19 24 10 13 1021.4 1021.3 0.0
11/05:30am 13.4 9.3 8.0 70 2.7 SW 19 24 10 13 1021.1 1021.0 0.0
11/05:00am 13.3 9.4 9.4 77 2.0 WSW 20 28 11 15 1020.7 1020.6 0.0
11/04:30am 12.9 9.2 9.5 80 1.7 SW 19 24 10 13 1020.5 1020.4 0.0
11/04:00am 12.9 7.9 9.5 80 1.7 WSW 26 33 14 18 1020.3 1020.2 0.0
11/03:30am 12.6 9.7 9.8 83 1.4 WSW 15 19 8 10 1020.0 1019.9 0.0
11/03:00am 12.6 8.9 10.0 84 1.3 WSW 20 24 11 13 1020.0 1019.9 0.0
11/02:30am 12.4 9.2 10.0 85 1.2 WSW 17 22 9 12 1020.0 1019.9 0.0
11/02:00am 12.6 9.2 9.1 79 1.8 WSW 17 22 9 12 1019.9 1019.8 0.0
11/01:30am 12.6 7.9 9.4 81 1.6 SW 24 32 13 17 1020.0 1019.9 0.0
11/01:00am 12.0 8.2 9.7 86 1.2 SW 20 28 11 15 1019.8 1019.7 0.0
11/12:49am 12.7 7.4 9.9 83 1.4 SW 28 41 15 22 1019.8 1019.7 0.0
11/12:30am 13.4 9.7 7.8 69 2.8 SW 17 20 9 11 1019.9 1019.8 0.0
11/12:00am 12.6 8.5 7.9 73 2.3 WSW 19 24 10 13 1019.8 1019.7 0.0
 
Date/Time
CST
Temp
°C
App
Temp
°C
Dew
Point
°C
Rel
Hum
%
Delta-T
°C
Wind Press
QNH
hPa
Press
MSL
hPa
Rain since
9am
mm
Dir  Spd
km/h
Gust
km/h
Spd
kts
Gust
kts
10/11:30pm 12.4 9.1 9.6 83 1.4 SW 17 20 9 11 1019.9 1019.8 0.0
10/11:00pm 13.1 9.5 10.6 85 1.3 WSW 20 28 11 15 1020.0 1019.9 0.0
10/10:30pm 14.2 9.3 10.0 76 2.2 SW 26 32 14 17 1019.9 1019.8 0.0
10/10:00pm 14.1 9.0 9.3 73 2.5 WSW 26 37 14 20 1019.5 1019.4 0.0
10/09:30pm 13.4 9.6 9.1 75 2.2 WSW 19 26 10 14 1019.4 1019.3 0.0
10/09:00pm 14.0 10.3 9.4 74 2.3 WSW 19 24 10 13 1019.0 1018.9 0.0
10/08:30pm 14.5 10.3 9.7 73 2.5 SW 22 33 12 18 1019.0 1018.9 0.0
10/08:00pm 14.4 10.3 10.2 76 2.2 SW 22 37 12 20 1018.6 1018.5 0.0
10/07:30pm 14.4 9.4 9.6 73 2.5 SW 26 35 14 19 1018.3 1018.2 0.0
10/07:16pm 14.5 9.1 9.5 72 2.6 SW 28 43 15 23 1018.2 1018.1 0.0
10/07:00pm 13.8 10.2 9.8 77 2.1 WSW 19 24 10 13 1017.9 1017.8 0.0
10/06:30pm 13.4 8.0 10.8 84 1.4 SW 30 41 16 22 1017.8 1017.7 0.0
10/06:27pm 13.4 7.6 10.9 85 1.3 SW 32 41 17 22 1017.8 1017.7 0.0
10/06:11pm 13.5 6.7 11.9 90 0.9 SW 39 50 21 27 1017.7 1017.6 0.0
10/06:00pm 15.8 9.3 9.0 64 3.5 SSW 33 46 18 25 1017.2 1017.1 0.0
10/05:30pm 16.8 10.3 8.2 57 4.4 SW 32 44 17 24 1016.8 1016.7 0.0
10/05:00pm 16.3 11.3 9.5 64 3.5 SW 26 33 14 18 1016.8 1016.7 0.0
10/04:30pm 16.0 8.6 8.5 61 3.8 SSW 37 52 20 28 1016.9 1016.8 0.0
10/04:00pm 16.2 8.0 9.8 66 3.4 SSW 43 61 23 33 1016.8 1016.7 0.0
10/03:30pm 19.3 10.3 6.4 43 6.4 SSW 43 61 23 33 1016.0 1015.9 0.0
10/03:27pm 19.8 11.3 6.9 43 6.5 SSW 41 61 22 33 1015.9 1015.8 0.0
10/03:00pm 19.2 10.5 6.0 42 6.5 SW 41 52 22 28 1015.8 1015.7 0.0
10/02:30pm 19.8 11.9 7.9 46 6.1 SW 39 50 21 27 1015.7 1015.6 0.0
10/02:00pm 18.7 10.6 8.7 52 5.2 SSW 41 54 22 29 1015.6 1015.5 0.0
10/01:42pm 20.4 13.7 9.6 50 5.8 SSW 35 54 19 29 1015.5 1015.4 0.0
10/01:30pm 20.3 13.1 10.4 53 5.4 SSW 39 54 21 29 1015.6 1015.5 0.0
10/01:12pm 19.8 12.1 8.5 48 5.9 SSW 39 57 21 31 1015.1 1015.0 0.0
10/01:00pm 20.8 12.5 7.8 43 6.7 SSW 41 56 22 30 1015.1 1015.0 0.0
10/12:34pm 19.4 11.3 8.7 50 5.6 SSW 41 61 22 33 1015.6 1015.5 0.0
10/12:30pm 19.5 11.4 8.8 50 5.6 SSW 41 52 22 28 1015.6 1015.5 0.0
10/12:12pm 20.1 12.7 9.9 52 5.5 SSW 39 57 21 31 1015.6 1015.5 0.0
10/12:00pm 19.4 12.2 10.4 56 4.9 SSW 39 52 21 28 1015.5 1015.4 0.0
10/11:57am 18.8 11.9 10.4 58 4.5 SSW 37 50 20 27 1015.4 1015.3 0.0
10/11:30am 19.0 14.0 13.4 70 3.2 WSW 32 46 17 25 1015.5 1015.4 0.0
10/11:00am 18.5 13.2 13.1 71 3.0 SW 33 52 18 28 1015.7 1015.6 0.0
10/10:52am 17.0 11.8 13.3 79 2.1 SW 33 46 18 25 1015.7 1015.6 0.0
10/10:44am 16.4 10.9 14.6 89 1.0 WSW 37 56 20 30 1015.8 1015.7 0.0
10/10:39am 15.6 8.5 13.3 86 1.3 SW 43 56 23 30 1015.7 1015.6 0.0
10/10:30am 19.1 13.0 10.4 57 4.7 SW 33 46 18 25 1015.3 1015.2 0.0
10/10:00am 18.9 12.2 11.0 60 4.3 SW 37 52 20 28 1015.5 1015.4 0.0
10/09:30am 18.6 13.9 11.9 65 3.7 WSW 28 37 15 20 1015.5 1015.4 0.0
10/09:00am 16.2 11.9 12.0 76 2.3 SW 26 33 14 18 1015.5 1015.4 0.0
10/08:31am 16.9 12.1 12.8 77 2.3 WSW 30 50 16 27 1015.2 1015.1 0.0
10/08:30am 16.6 12.2 12.8 78 2.1 WSW 28 44 15 24 1015.3 1015.2 0.0
10/08:00am 14.7 11.8 12.2 85 1.4 WSW 19 26 10 14 1014.8 1014.7 0.0
10/07:48am 13.9 11.1 12.5 91 0.8 WSW 19 28 10 15 1014.8 1014.7 0.0
10/07:30am 13.7 8.8 12.6 93 0.6 SW 30 44 16 24 1014.9 1014.8 0.0
10/07:27am 14.0 9.0 12.2 89 1.0 WSW 30 44 16 24 1014.9 1014.8 0.0
10/07:25am 14.3 10.0 12.0 86 1.2 WSW 26 44 14 24 1014.8 1014.7 0.0
10/07:00am 14.5 11.1 10.7 78 2.0 W 19 22 10 12 1014.2 1014.1 0.0
10/06:30am 14.6 10.3 10.8 78 2.0 WSW 24 37 13 20 1014.0 1013.9 0.0
10/06:00am 13.9 10.9 10.7 81 1.7 W 17 22 9 12 1013.8 1013.7 0.0
10/05:30am 13.7 11.7 10.3 80 1.8 W 11 15 6 8 1013.4 1013.3 0.0
10/05:00am 13.7 11.4 10.3 80 1.8 W 13 17 7 9 1013.2 1013.1 0.0
10/04:30am 13.4 11.9 10.6 83 1.5 W 9 13 5 7 1013.3 1013.2 0.0
10/04:00am 14.2 11.5 10.4 78 2.0 WSW 15 19 8 10 1013.2 1013.1 0.0
10/03:30am 14.0 11.4 10.8 81 1.7 WSW 15 20 8 11 1013.4 1013.3 0.0
10/03:00am 13.4 10.7 10.4 82 1.6 WSW 15 17 8 9 1013.3 1013.2 0.0
10/02:30am 12.8 10.0 8.5 75 2.1 WSW 13 17 7 9 1013.5 1013.4 0.0
10/02:00am 12.6 9.9 8.9 78 1.9 WSW 13 15 7 8 1013.5 1013.4 0.0
10/01:30am 14.0 11.8 9.2 73 2.4 W 11 15 6 8 1013.3 1013.2 0.0
10/01:00am 14.5 12.8 9.9 74 2.4 W 9 13 5 7 1013.7 1013.6 0.0
10/12:30am 14.1 12.1 10.1 77 2.1 SW 11 15 6 8 1013.8 1013.7 0.0
10/12:00am 14.0 12.1 10.6 80 1.8 W 11 15 6 8 1013.9 1013.8 0.0
 
Date/Time
CST
Temp
°C
App
Temp
°C
Dew
Point
°C
Rel
Hum
%
Delta-T
°C
Wind Press
QNH
hPa
Press
MSL
hPa
Rain since
9am
mm
Dir  Spd
km/h
Gust
km/h
Spd
kts
Gust
kts
09/11:30pm 13.2 11.2 10.0 81 1.7 WSW 11 11 6 6 1014.0 1013.9 0.0
09/11:00pm 14.2 11.6 10.6 79 1.9 SW 15 20 8 11 1014.3 1014.2 0.0
09/10:30pm 14.1 11.8 10.3 78 2.0 WSW 13 15 7 8 1014.6 1014.5 0.0
09/10:00pm 12.6 9.6 9.2 80 1.7 WSW 15 19 8 10 1014.5 1014.4 0.0
09/09:30pm 13.7 11.3 8.5 71 2.6 W 11 13 6 7 1014.6 1014.5 0.0
09/09:00pm 14.0 11.8 9.2 73 2.4 WSW 11 15 6 8 1014.5 1014.4 0.0
09/08:30pm 13.3 10.3 9.4 77 2.0 WSW 15 17 8 9 1014.4 1014.3 0.0
09/08:00pm 12.6 9.5 8.7 77 2.0 WSW 15 17 8 9 1014.3 1014.2 0.0
09/07:30pm 14.2 11.1 8.8 70 2.7 SW 15 17 8 9 1013.9 1013.8 0.0
09/07:00pm 14.8 11.4 9.0 68 3.0 SW 17 19 9 10 1013.6 1013.5 0.0
09/06:30pm 16.1 12.3 9.1 63 3.6 SSW 19 24 10 13 1013.1 1013.0 0.0
09/06:00pm 16.8 11.3 9.0 60 4.0 SSW 28 37 15 20 1012.9 1012.8 0.0
09/05:30pm 17.2 12.4 8.9 58 4.3 S 24 33 13 18 1012.4 1012.3 0.0
09/05:00pm 17.6 13.0 9.8 60 4.1 S 24 35 13 19 1012.4 1012.3 0.0
09/04:30pm 18.7 13.5 8.7 52 5.2 SSW 26 33 14 18 1012.5 1012.4 0.0
09/04:00pm 18.9 14.1 8.8 52 5.3 S 24 33 13 18 1012.3 1012.2 0.0
09/03:30pm 19.5 15.0 8.5 49 5.7 SSW 22 30 12 16 1012.5 1012.4 0.0
09/03:00pm 20.2 15.5 7.6 44 6.5 SSW 22 35 12 19 1012.5 1012.4 0.0
09/02:30pm 19.8 14.8 7.9 46 6.1 SSW 24 33 13 18 1012.7 1012.6 0.0
09/02:00pm 19.4 14.5 8.4 49 5.7 S 24 35 13 19 1012.9 1012.8 0.0
09/01:30pm 19.4 15.8 8.4 49 5.7 SSW 17 28 9 15 1013.4 1013.3 0.0
09/01:00pm 20.3 16.0 7.7 44 6.5 SSW 20 33 11 18 1013.4 1013.3 0.0
09/12:30pm 19.5 14.4 7.6 46 6.1 S 24 35 13 19 1013.3 1013.2 0.0
09/12:00pm 19.7 14.7 8.1 47 6.0 S 24 39 13 21 1013.8 1013.7 0.0
09/11:30am 19.1 14.5 9.6 54 5.0 S 24 32 13 17 1014.2 1014.1 0.0
09/11:00am 18.2 14.2 9.0 55 4.8 SSW 20 26 11 14 1014.4 1014.3 0.0
09/10:30am 18.0 15.0 9.4 57 4.5 S 15 22 8 12 1014.6 1014.5 0.0
09/10:00am 18.1 15.1 10.5 61 4.1 SSW 17 30 9 16 1014.6 1014.5 0.0
09/09:30am 17.4 12.8 9.8 61 4.0 S 24 35 13 19 1014.8 1014.7 0.0
09/09:00am 16.4 13.0 10.7 69 3.0 S 19 28 10 15 1014.7 1014.6 1.4
09/08:30am 16.4 14.4 12.8 79 2.0 SSW 15 20 8 11 1014.5 1014.4 1.4
09/08:00am 15.7 14.2 13.0 84 1.5 S 13 19 7 10 1014.0 1013.9 1.4
09/07:30am 15.2 13.4 13.2 88 1.1 SW 15 17 8 9 1014.0 1013.9 1.4
09/07:26am 15.2 13.4 13.2 88 1.1 WSW 15 17 8 9 1013.9 1013.8 1.4
09/07:07am 15.1 14.1 13.3 89 1.0 SSW 11 15 6 8 1013.3 1013.2 1.4
09/07:00am 14.9 13.9 13.3 90 0.9 SSW 11 13 6 7 1013.1 1013.0 1.4
09/06:30am 14.6 13.6 13.3 92 0.7 SSW 11 13 6 7 1012.5 1012.4 1.4
09/06:00am 14.5 13.7 13.0 91 0.8 SSW 9 15 5 8 1012.6 1012.5 1.4
09/05:30am 15.4 13.6 13.4 88 1.1 SSW 15 20 8 11 1012.2 1012.1 1.4
09/05:00am 15.5 13.9 14.0 91 0.8 SSW 15 20 8 11 1011.7 1011.6 1.4
09/04:30am 15.5 13.7 14.4 93 0.6 SSW 17 24 9 13 1011.6 1011.5 1.4
09/04:00am 15.7 13.6 14.6 93 0.6 SSW 19 24 10 13 1011.4 1011.3 1.4
09/03:30am 15.4 12.3 14.6 95 0.5 SSW 24 35 13 19 1011.5 1011.4 1.4
09/03:21am 15.2 11.5 14.9 98 0.2 SSW 28 37 15 20 1011.5 1011.4 1.4
09/03:17am 15.4 11.8 15.2 99 0.1 SSW 28 35 15 19 1011.4 1011.3 1.4
09/03:00am 15.9 14.1 15.9 100 0.0 SSW 20 26 11 14 1011.1 1011.1 1.4
09/02:37am 16.3 15.6 16.3 100 0.0 SSW 15 26 8 14 1010.9 1010.9 1.2
09/02:30am 16.3 15.2 16.3 100 0.0 SSW 17 20 9 11 1010.8 1010.8 1.2
09/02:21am 16.3 15.2 16.3 100 0.0 SSW 17 22 9 12 1010.9 1010.9 1.2
09/02:03am 16.2 14.1 16.2 100 0.0 SSW 22 32 12 17 1011.5 1011.4 1.0
09/02:00am 16.2 13.7 16.2 100 0.0 SSW 24 32 13 17 1011.5 1011.4 1.0
09/01:58am 16.2 13.7 16.2 100 0.0 SSW 24 32 13 17 1011.4 1011.3 1.0
09/01:34am 16.6 13.4 16.4 99 0.1 SSW 28 37 15 20 1011.1 1011.1 1.0

Latest Capital City Observations: Canberra | Sydney | Melbourne | Brisbane | Adelaide | Perth | Hobart | Darwin

Other formats

Comma delimited format used in spreadsheet applications
http://www.bom.gov.au/fwo/IDS60901/IDS60901.95818.axf

JavaScript Object Notation format (JSON) in row-major order
http://www.bom.gov.au/fwo/IDS60901/IDS60901.95818.json

Data quality

Most of these data are generated automatically and are frequently updated. Quality checks on data are not normally performed. It is possible for incorrect values to appear. Refer to information at About Latest Weather Observations and please check the disclaimer before using these data.